Impacts METAR Board
IDs:

KMDW - Chicago/Midway Intl, IL, US

Updated at: 1100 UTC 16 Feb 2019
Potential Impact None Slight Moderate High
Time 15/23Z 16/00Z 16/01Z 16/02Z 16/03Z 16/04Z 16/05Z 16/06Z 16/07Z 16/08Z 16/09Z 16/10Z 16/11Z
Temp20 20 19 19 18 18 17 18 18 18 18 18 19
Dewpt9 9 10 9 7 6 5 6 6 6 7 7 8
Altim29.97 29.99 30.01 30.03 30.05 30.07 30.07 30.08 30.09 30.09 30.09 30.09 30.09
VIS10 10 10 10 10 10 10 10 10 10 10 10 10
CIG250 250 250 250 250 250 23 21 21 22 24 25 26
CoverBKNBKNBKNBKNBKNBKNBKNBKNOVCOVCOVCOVCOVC
FltCatVFRVFRVFRVFRVFRVFRMVFRMVFRMVFRMVFRMVFRMVFRMVFR
WX--------------------------
WDir310310310330330330330320330300310310320
WSpd8 7 5 10 8 8 8 5 8 7 6 5 7
WGst-- -- -- -- -- -- -- -- -- -- -- -- --
Raw hourly METARs
KMDW 152253Z 31008KT 10SM BKN250 M07/M13 A2997 RMK AO2 SLP167 T10671128
KMDW 152353Z 31007KT 10SM BKN250 M07/M13 A2999 RMK AO2 SLP173 T10671128 11050 21072 53012
KMDW 160053Z 31005KT 10SM BKN250 M07/M12 A3001 RMK AO2 SLP182 T10721122 $
KMDW 160153Z 33010KT 10SM BKN250 M07/M13 A3003 RMK AO2 SLP189 T10721128 $
KMDW 160253Z 33008KT 10SM BKN250 M08/M14 A3005 RMK AO2 SLP195 T10781139 51021 $
KMDW 160353Z 33008KT 10SM FEW021 BKN250 M08/M14 A3007 RMK AO2 SLP203 T10781144 $
KMDW 160453Z 33008KT 10SM BKN023 BKN250 M08/M15 A3007 RMK AO2 SLP203 T10831150 $
KMDW 160553Z 32005KT 10SM BKN021 BKN250 M08/M14 A3008 RMK AO2 SLP203 T10781144 11067 21083 400061117 51009 $
KMDW 160653Z 33008KT 10SM OVC021 M08/M14 A3009 RMK AO2 SLP208 T10781144 $
KMDW 160753Z 30007KT 10SM OVC022 M08/M14 A3009 RMK AO2 SLP207 T10781144 $
KMDW 160853Z 31006KT 10SM OVC024 M08/M14 A3009 RMK AO2 SLP207 T10781139 51005 $
KMDW 160953Z 31005KT 10SM OVC025 M08/M14 A3009 RMK AO2 SLP208 T10781139 $
KMDW 161053Z 32007KT 10SM OVC026 M07/M13 A3009 RMK AO2 SLP208 T10721133 $



Page loaded:  11:28 UTC  |   03:28 AM Pacific  |   04:28 AM Mountain  |   05:28 AM Central  |   06:28 AM Eastern

 

ADVISORIES

FORECASTS

FORECASTS

OBSERVATIONS

USER TOOLS

ABOUT US